| time (UTC) | temp F | wind direction | speed MPH | gust MPH | rain 1hr in | rain 24hr in | rain mn in | humidity % | barometer mb |
| 20260508183037 | 63 | 33 | 2.0 | 6.0 | 0.00 | 0.00 | 0.00 | 30 | 1004.4 |
| 20260508181544 | 63 | 355 | 0.0 | 5.0 | 0.00 | 0.00 | 0.00 | 34 | 1004.5 |
| 20260508180035 | 63 | 243 | 3.0 | 6.0 | 0.00 | 0.00 | 0.00 | 29 | 1004.7 |
| 20260508174530 | 62 | 248 | 1.0 | 6.0 | 0.00 | 0.00 | 0.00 | 31 | 1005.0 |
| 20260508173028 | 62 | 317 | 3.0 | 9.0 | 0.00 | 0.00 | 0.00 | 30 | 1005.3 |
| 20260508171526 | 62 | 324 | 1.0 | 6.0 | 0.00 | 0.00 | 0.00 | 31 | 1005.5 |
| 20260508170023 | 61 | 323 | 0.0 | 7.0 | 0.00 | 0.00 | 0.00 | 30 | 1005.7 |
| 20260508164520 | 61 | 20 | 1.0 | 5.0 | 0.00 | 0.00 | 0.00 | 34 | 1005.9 |
| 20260508163023 | 61 | 322 | 2.0 | 7.0 | 0.00 | 0.00 | 0.00 | 32 | 1006.1 |
| 20260508161518 | 61 | 38 | 1.0 | 6.0 | 0.00 | 0.00 | 0.00 | 33 | 1006.1 |
| 20260508160014 | 60 | 279 | 0.0 | 6.0 | 0.00 | 0.00 | 0.00 | 37 | 1006.4 |
| 20260508154532 | 60 | 271 | 2.0 | 8.0 | 0.00 | 0.00 | 0.00 | 35 | 1006.5 |
| 20260508153012 | 59 | 319 | 2.0 | 8.0 | 0.00 | 0.00 | 0.00 | 34 | 1006.6 |
| 20260508151512 | 59 | 319 | 2.0 | 6.0 | 0.00 | 0.00 | 0.00 | 35 | 1006.6 |
| 20260508150005 | 58 | 332 | 1.0 | 5.0 | 0.00 | 0.00 | 0.00 | 38 | 1006.9 |
| 20260508144503 | 57 | 253 | 2.0 | 5.0 | 0.00 | 0.00 | 0.00 | 41 | 1007.0 |
| 20260508143105 | 56 | 262 | 1.0 | 5.0 | 0.00 | 0.00 | 0.00 | 40 | 1007.2 |
| 20260508141604 | 54 | 270 | 1.0 | 5.0 | 0.00 | 0.00 | 0.00 | 45 | 1007.4 |
| 20260508140050 | 52 | 219 | 2.0 | 5.0 | 0.00 | 0.00 | 0.00 | 49 | 1007.5 |
| 20260508134557 | 51 | 186 | 1.0 | 5.0 | 0.00 | 0.00 | 0.00 | 54 | 1007.6 |
| 20260508133050 | 48 | 265 | 1.0 | 5.0 | 0.00 | 0.00 | 0.00 | 59 | 1007.6 |
| 20260508131536 | 46 | 93 | 0.0 | 2.0 | 0.00 | 0.00 | 0.00 | 64 | 1007.7 |
| 20260508130034 | 43 | 93 | 0.0 | 2.0 | 0.00 | 0.00 | 0.00 | 71 | 1007.9 |
| 20260508124534 | 39 | 93 | 0.0 | 0.0 | 0.00 | 0.00 | 0.00 | 82 | 1008.0 |
| 20260508123041 | 37 | 93 | 0.0 | 0.0 | 0.00 | 0.00 | 0.00 | 87 | 1007.9 |
| 20260508121528 | 34 | 93 | 0.0 | 0.0 | 0.00 | 0.00 | 0.00 | 94 | 1008.0 |
| 20260508120121 | 32 | 93 | 0.0 | 0.0 | 0.00 | 0.00 | 0.00 | 94 | 1007.9 |
| 20260508114541 | 29 | 93 | 0.0 | 0.0 | 0.00 | 0.00 | 0.00 | 93 | 1007.9 |
| 20260508113040 | 29 | 93 | 0.0 | 0.0 | 0.00 | 0.00 | 0.00 | 92 | 1007.8 |
| 20260508111540 | 28 | 93 | 0.0 | 0.0 | 0.00 | 0.00 | 0.00 | 92 | 1007.8 |
| 20260508110036 | 28 | 93 | 0.0 | 0.0 | 0.00 | 0.00 | 0.00 | 91 | 1007.8 |
| 20260508104536 | 28 | 93 | 0.0 | 0.0 | 0.00 | 0.00 | 0.00 | 91 | 1007.8 |
| 20260508103035 | 29 | 93 | 0.0 | 0.0 | 0.00 | 0.00 | 0.00 | 91 | 1007.9 |
| 20260508101534 | 29 | 93 | 0.0 | 1.0 | 0.00 | 0.00 | 0.00 | 91 | 1008.0 |
| 20260508100031 | 29 | 93 | 0.0 | 1.0 | 0.00 | 0.00 | 0.00 | 91 | 1008.1 |
| 20260508094530 | 29 | 93 | 0.0 | 0.0 | 0.00 | 0.00 | 0.00 | 91 | 1008.2 |
| 20260508093029 | 29 | 93 | 0.0 | 2.0 | 0.00 | 0.00 | 0.00 | 90 | 1008.2 |
| 20260508091527 | 29 | 93 | 0.0 | 0.0 | 0.00 | 0.00 | 0.00 | 90 | 1008.2 |
| 20260508090043 | 29 | 93 | 0.0 | 0.0 | 0.00 | 0.00 | 0.00 | 89 | 1008.3 |
| 20260508084523 | 30 | 93 | 0.0 | 0.0 | 0.00 | 0.00 | 0.00 | 89 | 1008.3 |
| 20260508083022 | 30 | 93 | 0.0 | 0.0 | 0.00 | 0.00 | 0.00 | 88 | 1008.4 |
| 20260508081520 | 31 | 93 | 0.0 | 0.0 | 0.00 | 0.00 | 0.00 | 88 | 1008.5 |
| 20260508080017 | 31 | 93 | 0.0 | 0.0 | 0.00 | 0.00 | 0.00 | 87 | 1008.5 |
| 20260508074523 | 31 | 93 | 0.0 | 0.0 | 0.00 | 0.00 | 0.00 | 87 | 1008.7 |
| 20260508073015 | 32 | 93 | 0.0 | 0.0 | 0.00 | 0.00 | 0.00 | 87 | 1008.7 |
| 20260508071511 | 32 | 93 | 0.0 | 0.0 | 0.00 | 0.00 | 0.00 | 86 | 1008.8 |
| 20260508070009 | 33 | 93 | 0.0 | 0.0 | 0.00 | 0.00 | 0.00 | 85 | 1009.0 |
| 20260508064506 | 33 | 93 | 0.0 | 0.0 | 0.00 | 0.00 | 0.00 | 84 | 1009.0 |
| 20260508063008 | 34 | 93 | 0.0 | 0.0 | 0.00 | 0.00 | 0.00 | 84 | 1009.0 |
| 20260508061502 | 34 | 93 | 0.0 | 0.0 | 0.00 | 0.00 | 0.00 | 83 | 1009.1 |
| 20260508060110 | 35 | 93 | 0.0 | 0.0 | 0.00 | 0.00 | 0.00 | 82 | 1009.3 |
| 20260508054557 | 35 | 93 | 0.0 | 0.0 | 0.00 | 0.00 | 0.00 | 81 | 1009.3 |
| 20260508053059 | 36 | 93 | 0.0 | 0.0 | 0.00 | 0.00 | 0.00 | 80 | 1009.4 |
| 20260508051607 | 37 | 93 | 0.0 | 0.0 | 0.00 | 0.00 | 0.00 | 80 | 1009.6 |
| 20260508050052 | 37 | 93 | 0.0 | 0.0 | 0.00 | 0.00 | 0.00 | 79 | 1009.4 |
| 20260508044551 | 38 | 93 | 0.0 | 1.0 | 0.00 | 0.00 | 0.00 | 78 | 1009.6 |
| 20260508043048 | 38 | 93 | 0.0 | 0.0 | 0.00 | 0.00 | 0.00 | 75 | 1009.7 |
| 20260508041545 | 39 | 93 | 0.0 | 0.0 | 0.00 | 0.00 | 0.00 | 74 | 1009.6 |
| 20260508040052 | 39 | 93 | 0.0 | 0.0 | 0.00 | 0.00 | 0.00 | 73 | 1009.6 |
| 20260508034550 | 40 | 93 | 0.0 | 0.0 | 0.00 | 0.00 | 0.00 | 72 | 1009.6 |
| 20260508033049 | 40 | 93 | 0.0 | 0.0 | 0.00 | 0.00 | 0.00 | 71 | 1009.6 |
| 20260508031554 | 40 | 93 | 0.0 | 1.0 | 0.00 | 0.00 | 0.00 | 71 | 1009.6 |
| 20260508030045 | 41 | 93 | 0.0 | 1.0 | 0.00 | 0.00 | 0.00 | 70 | 1009.6 |
| 20260508024608 | 41 | 93 | 0.0 | 1.0 | 0.00 | 0.00 | 0.00 | 70 | 1009.6 |
| 20260508023041 | 42 | 93 | 0.0 | 1.0 | 0.00 | 0.00 | 0.00 | 69 | 1009.5 |
| 20260508021547 | 42 | 93 | 0.0 | 1.0 | 0.00 | 0.00 | 0.00 | 68 | 1009.6 |
| 20260508020049 | 43 | 93 | 0.0 | 3.0 | 0.00 | 0.00 | 0.00 | 67 | 1009.4 |
| 20260508014549 | 44 | 84 | 0.0 | 2.0 | 0.00 | 0.00 | 0.00 | 66 | 1009.2 |
| 20260508013039 | 45 | 84 | 0.0 | 2.0 | 0.00 | 0.00 | 0.00 | 65 | 1009.1 |
| 20260508011539 | 46 | 84 | 0.0 | 4.0 | 0.00 | 0.00 | 0.00 | 63 | 1009.1 |
| 20260508010049 | 47 | 80 | 0.0 | 4.0 | 0.00 | 0.00 | 0.00 | 61 | 1009.1 |
| 20260508004549 | 49 | 65 | 1.0 | 5.0 | 0.00 | 0.00 | 0.00 | 58 | 1009.1 |
| 20260508003038 | 50 | 327 | 0.0 | 2.0 | 0.00 | 0.00 | 0.00 | 52 | 1008.9 |
| 20260508001543 | 50 | 324 | 0.0 | 2.0 | 0.00 | 0.00 | 0.00 | 51 | 1008.9 |
| 20260508000036 | 51 | 324 | 1.0 | 3.0 | 0.00 | 0.00 | 0.00 | 49 | 1008.9 |
| 20260507234536 | 52 | 329 | 0.0 | 4.0 | 0.00 | 0.00 | 0.00 | 50 | 1009.0 |
| 20260507233035 | 52 | 302 | 1.0 | 4.0 | 0.00 | 0.00 | 0.00 | 48 | 1009.1 |
| 20260507231536 | 52 | 5 | 1.0 | 7.0 | 0.00 | 0.00 | 0.00 | 49 | 1009.1 |
| 20260507230035 | 50 | 319 | 2.0 | 6.0 | 0.00 | 0.00 | 0.00 | 51 | 1009.2 |
| 20260507224534 | 50 | 17 | 1.0 | 12.0 | 0.00 | 0.00 | 0.00 | 50 | 1009.3 |
| 20260507223034 | 50 | 5 | 3.0 | 10.0 | 0.00 | 0.00 | 0.00 | 50 | 1009.3 |
| 20260507221539 | 51 | 282 | 2.0 | 11.0 | 0.00 | 0.00 | 0.00 | 51 | 1009.3 |
| 20260507220032 | 51 | 320 | 1.0 | 8.0 | 0.00 | 0.00 | 0.00 | 49 | 1009.2 |
| 20260507214535 | 50 | 5 | 2.0 | 8.0 | 0.00 | 0.00 | 0.00 | 55 | 1009.4 |
| 20260507213032 | 49 | 325 | 3.0 | 10.0 | 0.00 | 0.00 | 0.00 | 53 | 1009.5 |
| 20260507211531 | 50 | 246 | 5.0 | 10.0 | 0.00 | 0.00 | 0.00 | 49 | 1009.3 |
| 20260507210030 | 52 | 250 | 4.0 | 9.0 | 0.00 | 0.00 | 0.00 | 41 | 1009.1 |
| 20260507204529 | 51 | 306 | 4.0 | 14.0 | 0.00 | 0.00 | 0.00 | 41 | 1009.0 |
| 20260507203039 | 52 | 315 | 2.0 | 7.0 | 0.00 | 0.00 | 0.00 | 41 | 1009.0 |
| 20260507201526 | 53 | 224 | 3.0 | 7.0 | 0.00 | 0.00 | 0.00 | 40 | 1009.1 |
| 20260507200024 | 51 | 312 | 2.0 | 12.0 | 0.00 | 0.00 | 0.00 | 40 | 1009.4 |
| 20260507194527 | 52 | 271 | 2.0 | 7.0 | 0.00 | 0.00 | 0.00 | 41 | 1009.6 |
| 20260507193021 | 51 | 280 | 2.0 | 9.0 | 0.00 | 0.00 | 0.00 | 41 | 1009.6 |
| 20260507191521 | 51 | 306 | 3.0 | 7.0 | 0.00 | 0.00 | 0.00 | 40 | 1009.7 |
| 20260507190020 | 51 | 227 | 1.0 | 6.0 | 0.00 | 0.00 | 0.00 | 39 | 1009.8 |
| 20260507184523 | 51 | 336 | 3.0 | 8.0 | 0.00 | 0.00 | 0.00 | 39 | 1009.9 |